sensor_id;sensor_type;location;lat;lon;timestamp;pressure;altitude;pressure_sealevel;temperature;humidity
31096;BME280;17749;51.962;8.560;2023-01-30T06:02:53;99657.88;;;4.38;100.00
31096;BME280;17749;51.962;8.560;2023-01-30T06:05:19;99644.63;;;4.40;100.00
31096;BME280;17749;51.962;8.560;2023-01-30T06:07:46;99654.25;;;4.43;100.00
31096;BME280;17749;51.962;8.560;2023-01-30T06:10:13;99667.38;;;4.46;100.00
31096;BME280;17749;51.962;8.560;2023-01-30T06:12:41;99654.97;;;4.49;100.00
31096;BME280;17749;51.962;8.560;2023-01-30T06:15:08;99660.25;;;4.49;100.00
31096;BME280;17749;51.962;8.560;2023-01-30T06:17:35;99669.00;;;4.51;100.00
31096;BME280;17749;51.962;8.560;2023-01-30T06:20:02;99671.59;;;4.53;100.00
31096;BME280;17749;51.962;8.560;2023-01-30T06:22:29;99655.78;;;4.53;100.00
31096;BME280;17749;51.962;8.560;2023-01-30T06:24:56;99656.66;;;4.53;100.00
31096;BME280;17749;51.962;8.560;2023-01-30T06:27:23;99664.53;;;4.55;100.00
31096;BME280;17749;51.962;8.560;2023-01-30T06:29:50;99676.81;;;4.56;100.00
31096;BME280;17749;51.962;8.560;2023-01-30T06:32:17;99673.19;;;4.60;100.00
31096;BME280;17749;51.962;8.560;2023-01-30T06:34:44;99660.84;;;4.62;100.00
31096;BME280;17749;51.962;8.560;2023-01-30T06:37:11;99663.56;;;4.59;100.00
31096;BME280;17749;51.962;8.560;2023-01-30T06:39:37;99679.31;;;4.62;100.00
31096;BME280;17749;51.962;8.560;2023-01-30T06:42:04;99676.69;;;4.62;100.00
31096;BME280;17749;51.962;8.560;2023-01-30T06:44:32;99690.69;;;4.64;100.00
31096;BME280;17749;51.962;8.560;2023-01-30T06:46:59;99682.75;;;4.66;100.00
31096;BME280;17749;51.962;8.560;2023-01-30T06:49:26;99683.59;;;4.66;100.00
31096;BME280;17749;51.962;8.560;2023-01-30T06:51:53;99673.03;;;4.68;100.00
31096;BME280;17749;51.962;8.560;2023-01-30T06:54:20;99673.00;;;4.69;100.00
31096;BME280;17749;51.962;8.560;2023-01-30T06:56:47;99674.72;;;4.70;100.00
31096;BME280;17749;51.962;8.560;2023-01-30T06:59:14;99668.53;;;4.71;100.00
31096;BME280;17749;51.962;8.560;2023-01-30T07:01:41;99670.28;;;4.72;100.00
31096;BME280;17749;51.962;8.560;2023-01-30T07:04:08;99674.66;;;4.73;100.00
31096;BME280;17749;51.962;8.560;2023-01-30T07:06:35;99672.00;;;4.75;100.00
31096;BME280;17749;51.962;8.560;2023-01-30T07:09:05;99679.84;;;4.76;100.00
31096;BME280;17749;51.962;8.560;2023-01-30T07:11:32;99685.97;;;4.78;100.00
31096;BME280;17749;51.962;8.560;2023-01-30T07:13:59;99678.97;;;4.77;100.00
31096;BME280;17749;51.962;8.560;2023-01-30T07:16:25;99669.31;;;4.76;100.00
31096;BME280;17749;51.962;8.560;2023-01-30T07:18:55;99667.66;;;4.72;100.00
31096;BME280;17749;51.962;8.560;2023-01-30T07:21:24;99667.56;;;4.75;100.00
31096;BME280;17749;51.962;8.560;2023-01-30T07:23:52;99671.06;;;4.77;100.00
31096;BME280;17749;51.962;8.560;2023-01-30T07:26:19;99665.78;;;4.77;100.00
31096;BME280;17749;51.962;8.560;2023-01-30T07:28:46;99663.13;;;4.77;100.00
31096;BME280;17749;51.962;8.560;2023-01-30T07:31:13;99669.25;;;4.79;100.00
31096;BME280;17749;51.962;8.560;2023-01-30T07:33:40;99668.38;;;4.79;100.00
31096;BME280;17749;51.962;8.560;2023-01-30T07:36:07;99686.81;;;4.80;100.00
31096;BME280;17749;51.962;8.560;2023-01-30T07:38:35;99688.53;;;4.81;100.00
31096;BME280;17749;51.962;8.560;2023-01-30T07:41:01;99692.16;;;4.77;100.00
31096;BME280;17749;51.962;8.560;2023-01-30T07:43:28;99690.38;;;4.79;100.00
31096;BME280;17749;51.962;8.560;2023-01-30T07:45:55;99696.56;;;4.77;100.00
31096;BME280;17749;51.962;8.560;2023-01-30T07:48:22;99715.06;;;4.75;100.00
31096;BME280;17749;51.962;8.560;2023-01-30T07:50:49;99705.38;;;4.76;100.00
31096;BME280;17749;51.962;8.560;2023-01-30T07:53:16;99699.22;;;4.75;100.00
31096;BME280;17749;51.962;8.560;2023-01-30T07:55:46;99708.06;;;4.74;100.00
31096;BME280;17749;51.962;8.560;2023-01-30T07:58:14;99716.84;;;4.73;100.00
31096;BME280;17749;51.962;8.560;2023-01-30T08:00:42;99725.69;;;4.72;100.00
31096;BME280;17749;51.962;8.560;2023-01-30T08:03:15;99723.00;;;4.74;100.00
31096;BME280;17749;51.962;8.560;2023-01-30T08:05:45;99723.84;;;4.76;100.00
31096;BME280;17749;51.962;8.560;2023-01-30T08:08:13;99716.78;;;4.76;100.00
31096;BME280;17749;51.962;8.560;2023-01-30T08:10:40;99722.97;;;4.75;100.00
31096;BME280;17749;51.962;8.560;2023-01-30T08:13:07;99731.84;;;4.71;100.00
31096;BME280;17749;51.962;8.560;2023-01-30T08:15:35;99740.66;;;4.72;100.00
31096;BME280;17749;51.962;8.560;2023-01-30T08:18:02;99736.31;;;4.69;100.00
31096;BME280;17749;51.962;8.560;2023-01-30T08:20:29;99729.19;;;4.71;100.00
31096;BME280;17749;51.962;8.560;2023-01-30T08:22:57;99723.88;;;4.74;100.00
31096;BME280;17749;51.962;8.560;2023-01-30T08:25:25;99730.88;;;4.75;100.00
31096;BME280;17749;51.962;8.560;2023-01-30T08:27:52;99719.47;;;4.75;100.00
31096;BME280;17749;51.962;8.560;2023-01-30T08:30:20;99723.94;;;4.71;100.00
31096;BME280;17749;51.962;8.560;2023-01-30T08:35:41;99721.28;;;4.71;100.00
31096;BME280;17749;51.962;8.560;2023-01-30T08:38:08;99715.97;;;4.74;100.00
31096;BME280;17749;51.962;8.560;2023-01-30T08:40:35;99722.06;;;4.76;100.00
31096;BME280;17749;51.962;8.560;2023-01-30T08:43:02;99724.69;;;4.76;100.00
31096;BME280;17749;51.962;8.560;2023-01-30T08:45:30;99723.75;;;4.80;100.00
31096;BME280;17749;51.962;8.560;2023-01-30T08:48:04;99730.66;;;4.84;100.00
31096;BME280;17749;51.962;8.560;2023-01-30T08:50:32;99733.34;;;4.83;100.00
31096;BME280;17749;51.962;8.560;2023-01-30T08:53:04;99746.47;;;4.86;100.00
31096;BME280;17749;51.962;8.560;2023-01-30T08:55:32;99749.97;;;4.87;100.00
31096;BME280;17749;51.962;8.560;2023-01-30T08:57:59;99730.56;;;4.89;100.00
31096;BME280;17749;51.962;8.560;2023-01-30T09:00:27;99731.34;;;4.94;100.00
31096;BME280;17749;51.962;8.560;2023-01-30T09:02:54;99733.94;;;4.96;100.00
31096;BME280;17749;51.962;8.560;2023-01-30T09:05:22;99727.72;;;4.98;100.00
31096;BME280;17749;51.962;8.560;2023-01-30T09:07:50;99732.94;;;5.00;100.00
31096;BME280;17749;51.962;8.560;2023-01-30T09:10:17;99727.81;;;4.95;100.00
31096;BME280;17749;51.962;8.560;2023-01-30T09:12:45;99725.97;;;4.97;100.00
31096;BME280;17749;51.962;8.560;2023-01-30T09:15:12;99726.91;;;4.95;100.00
31096;BME280;17749;51.962;8.560;2023-01-30T09:17:40;99737.53;;;4.92;100.00
31096;BME280;17749;51.962;8.560;2023-01-30T09:20:09;99737.53;;;4.92;100.00
31096;BME280;17749;51.962;8.560;2023-01-30T09:22:36;99735.66;;;4.97;100.00
31096;BME280;17749;51.962;8.560;2023-01-30T09:25:04;99732.94;;;5.01;100.00
31096;BME280;17749;51.962;8.560;2023-01-30T09:27:31;99733.78;;;5.02;100.00
31096;BME280;17749;51.962;8.560;2023-01-30T09:29:58;99743.50;;;5.00;100.00
31096;BME280;17749;51.962;8.560;2023-01-30T09:32:25;99750.41;;;5.05;100.00
31096;BME280;17749;51.962;8.560;2023-01-30T09:34:52;99762.63;;;5.11;100.00
31096;BME280;17749;51.962;8.560;2023-01-30T09:37:22;99746.81;;;5.10;100.00
31096;BME280;17749;51.962;8.560;2023-01-30T09:39:52;99738.88;;;5.11;100.00
31096;BME280;17749;51.962;8.560;2023-01-30T09:45:37;99739.13;;;5.00;100.00
31096;BME280;17749;51.962;8.560;2023-01-30T09:48:14;99754.97;;;4.99;100.00
31096;BME280;17749;51.962;8.560;2023-01-30T09:54:20;99742.63;;;5.01;100.00
31096;BME280;17749;51.962;8.560;2023-01-30T09:57:15;99742.63;;;5.01;100.00
31096;BME280;17749;51.962;8.560;2023-01-30T10:00:52;99754.91;;;5.02;100.00
31096;BME280;17749;51.962;8.560;2023-01-30T10:05:49;99751.31;;;5.06;100.00
31096;BME280;17749;51.962;8.560;2023-01-30T10:08:54;99749.34;;;5.14;100.00
31096;BME280;17749;51.962;8.560;2023-01-30T10:11:49;99750.19;;;5.16;100.00
31096;BME280;17749;51.962;8.560;2023-01-30T10:16:57;99751.06;;;5.15;100.00
31096;BME280;17749;51.962;8.560;2023-01-30T10:22:41;99752.69;;;5.22;100.00
31096;BME280;17749;51.962;8.560;2023-01-30T10:25:38;99752.69;;;5.22;100.00
31096;BME280;17749;51.962;8.560;2023-01-30T10:28:36;99746.47;;;5.25;100.00
31096;BME280;17749;51.962;8.560;2023-01-30T10:31:19;99730.53;;;5.28;100.00
31096;BME280;17749;51.962;8.560;2023-01-30T10:34:02;99737.53;;;5.29;100.00
31096;BME280;17749;51.962;8.560;2023-01-30T10:36:52;99735.66;;;5.34;100.00
31096;BME280;17749;51.962;8.560;2023-01-30T10:39:34;99738.19;;;5.39;100.00
31096;BME280;17749;51.962;8.560;2023-01-30T10:46:43;99741.50;;;5.47;100.00
31096;BME280;17749;51.962;8.560;2023-01-30T10:54:02;99732.59;;;5.51;100.00
31096;BME280;17749;51.962;8.560;2023-01-30T10:57:02;99734.41;;;5.49;100.00
31096;BME280;17749;51.962;8.560;2023-01-30T11:00:00;99743.25;;;5.48;100.00
31096;BME280;17749;51.962;8.560;2023-01-30T11:02:35;99738.84;;;5.47;100.00
31096;BME280;17749;51.962;8.560;2023-01-30T11:05:17;99745.91;;;5.48;100.00
31096;BME280;17749;51.962;8.560;2023-01-30T11:07:50;99753.94;;;5.42;100.00
31096;BME280;17749;51.962;8.560;2023-01-30T11:10:26;99753.34;;;5.32;100.00
31096;BME280;17749;51.962;8.560;2023-01-30T11:13:18;99744.69;;;5.25;100.00
31096;BME280;17749;51.962;8.560;2023-01-30T11:15:53;99743.75;;;5.26;100.00
31096;BME280;17749;51.962;8.560;2023-01-30T11:18:25;99742.03;;;5.25;100.00
31096;BME280;17749;51.962;8.560;2023-01-30T11:21:21;99727.91;;;5.26;100.00
31096;BME280;17749;51.962;8.560;2023-01-30T11:24:14;99737.53;;;5.29;100.00
31096;BME280;17749;51.962;8.560;2023-01-30T11:26:43;99732.22;;;5.31;100.00
31096;BME280;17749;51.962;8.560;2023-01-30T11:29:25;99734.94;;;5.27;100.00
31096;BME280;17749;51.962;8.560;2023-01-30T11:31:53;99738.56;;;5.23;100.00
31096;BME280;17749;51.962;8.560;2023-01-30T11:34:22;99728.00;;;5.23;100.00
31096;BME280;17749;51.962;8.560;2023-01-30T11:36:51;99732.41;;;5.23;100.00
31096;BME280;17749;51.962;8.560;2023-01-30T11:39:21;99713.91;;;5.24;100.00
31096;BME280;17749;51.962;8.560;2023-01-30T11:41:57;99726.94;;;5.31;100.00
31096;BME280;17749;51.962;8.560;2023-01-30T11:44:33;99695.28;;;5.29;100.00
31096;BME280;17749;51.962;8.560;2023-01-30T11:47:06;99717.31;;;5.30;100.00
31096;BME280;17749;51.962;8.560;2023-01-30T11:49:43;99706.75;;;5.30;100.00
31096;BME280;17749;51.962;8.560;2023-01-30T11:52:36;99717.31;;;5.30;100.00
31096;BME280;17749;51.962;8.560;2023-01-30T11:55:12;99722.59;;;5.30;100.00
31096;BME280;17749;51.962;8.560;2023-01-30T11:57:51;99721.69;;;5.29;100.00
31096;BME280;17749;51.962;8.560;2023-01-30T12:00:37;99706.59;;;5.36;100.00
31096;BME280;17749;51.962;8.560;2023-01-30T12:03:10;99697.69;;;5.40;100.00
31096;BME280;17749;51.962;8.560;2023-01-30T12:05:40;99694.81;;;5.47;100.00
31096;BME280;17749;51.962;8.560;2023-01-30T12:08:21;99706.31;;;5.46;100.00
31096;BME280;17749;51.962;8.560;2023-01-30T12:11:24;99700.19;;;5.44;100.00
31096;BME280;17749;51.962;8.560;2023-01-30T12:14:02;99698.22;;;5.53;100.00
31096;BME280;17749;51.962;8.560;2023-01-30T12:16:56;99709.59;;;5.56;100.00
31096;BME280;17749;51.962;8.560;2023-01-30T12:19:42;99697.22;;;5.58;100.00
31096;BME280;17749;51.962;8.560;2023-01-30T12:25:00;99677.63;;;5.65;100.00
31096;BME280;17749;51.962;8.560;2023-01-30T12:27:46;99700.34;;;5.72;100.00
31096;BME280;17749;51.962;8.560;2023-01-30T12:30:21;99684.31;;;5.79;100.00
31096;BME280;17749;51.962;8.560;2023-01-30T12:32:57;99700.03;;;5.85;100.00
31096;BME280;17749;51.962;8.560;2023-01-30T12:35:40;99710.50;;;5.88;100.00
31096;BME280;17749;51.962;8.560;2023-01-30T12:41:41;99707.13;;;5.83;100.00
31096;BME280;17749;51.962;8.560;2023-01-30T13:00:50;99810.75;;;5.22;100.00
31096;BME280;17749;51.962;8.560;2023-01-30T13:03:39;99807.84;;;4.96;100.00
31096;BME280;17749;51.962;8.560;2023-01-30T13:06:38;99779.31;;;4.73;100.00
31096;BME280;17749;51.962;8.560;2023-01-30T13:09:57;99811.19;;;4.60;100.00
31096;BME280;17749;51.962;8.560;2023-01-30T13:13:12;99782.47;;;4.47;100.00
31096;BME280;17749;51.962;8.560;2023-01-30T13:18:33;99785.63;;;4.22;100.00
31096;BME280;17749;51.962;8.560;2023-01-30T13:21:23;99796.88;;;4.30;100.00
31096;BME280;17749;51.962;8.560;2023-01-30T13:26:40;99800.03;;;4.48;100.00
31096;BME280;17749;51.962;8.560;2023-01-30T13:29:30;99785.97;;;4.49;100.00
31096;BME280;17749;51.962;8.560;2023-01-30T13:32:01;99780.56;;;4.55;100.00
31096;BME280;17749;51.962;8.560;2023-01-30T13:34:34;99783.97;;;4.60;100.00
31096;BME280;17749;51.962;8.560;2023-01-30T13:37:07;99785.66;;;4.63;100.00
31096;BME280;17749;51.962;8.560;2023-01-30T13:39:54;99794.34;;;4.68;100.00
31096;BME280;17749;51.962;8.560;2023-01-30T13:45:22;99821.69;;;4.64;100.00
31096;BME280;17749;51.962;8.560;2023-01-30T13:50:58;99827.31;;;4.45;100.00
31096;BME280;17749;51.962;8.560;2023-01-30T13:53:49;99839.78;;;4.37;100.00
31096;BME280;17749;51.962;8.560;2023-01-30T13:56:40;99856.47;;;4.37;100.00
31096;BME280;17749;51.962;8.560;2023-01-30T14:09:48;99865.41;;;4.30;100.00
31096;BME280;17749;51.962;8.560;2023-01-30T14:12:24;99866.28;;;4.31;100.00
31096;BME280;17749;51.962;8.560;2023-01-30T14:15:01;99877.69;;;4.31;100.00
31096;BME280;17749;51.962;8.560;2023-01-30T14:17:29;99868.00;;;4.33;100.00
31096;BME280;17749;51.962;8.560;2023-01-30T14:20:03;99865.28;;;4.38;100.00
31096;BME280;17749;51.962;8.560;2023-01-30T14:22:40;99879.13;;;4.48;100.00
31096;BME280;17749;51.962;8.560;2023-01-30T14:35:47;99913.91;;;4.70;100.00
31096;BME280;17749;51.962;8.560;2023-01-30T14:38:20;99911.34;;;4.65;100.00
31096;BME280;17749;51.962;8.560;2023-01-30T14:41:24;99930.66;;;4.67;100.00
31096;BME280;17749;51.962;8.560;2023-01-30T14:43:52;99940.34;;;4.65;100.00
31096;BME280;17749;51.962;8.560;2023-01-30T14:59:21;99968.44;;;4.69;100.00
31096;BME280;17749;51.962;8.560;2023-01-30T15:13:57;100004.44;;;4.72;100.00
31096;BME280;17749;51.962;8.560;2023-01-30T15:22:09;100019.28;;;4.77;100.00
31096;BME280;17749;51.962;8.560;2023-01-30T15:30:38;100044.69;;;4.81;100.00
31096;BME280;17749;51.962;8.560;2023-01-30T15:33:18;100059.72;;;4.79;100.00
31096;BME280;17749;51.962;8.560;2023-01-30T15:35:56;100058.00;;;4.75;100.00
31096;BME280;17749;51.962;8.560;2023-01-30T15:38:29;100050.97;;;4.76;100.00
31096;BME280;17749;51.962;8.560;2023-01-30T15:41:01;100052.72;;;4.75;100.00
31096;BME280;17749;51.962;8.560;2023-01-30T15:46:33;100067.69;;;4.75;100.00
31096;BME280;17749;51.962;8.560;2023-01-30T15:51:53;100083.59;;;4.72;100.00
31096;BME280;17749;51.962;8.560;2023-01-30T15:54:26;100082.75;;;4.68;100.00
31096;BME280;17749;51.962;8.560;2023-01-30T15:56:56;100086.34;;;4.64;100.00
31096;BME280;17749;51.962;8.560;2023-01-30T16:02:04;100097.81;;;4.61;100.00
31096;BME280;17749;51.962;8.560;2023-01-30T16:04:33;100105.72;;;4.60;100.00
31096;BME280;17749;51.962;8.560;2023-01-30T16:07:16;100116.34;;;4.57;100.00
31096;BME280;17749;51.962;8.560;2023-01-30T16:09:56;100130.44;;;4.56;100.00
31096;BME280;17749;51.962;8.560;2023-01-30T16:12:33;100130.44;;;4.54;100.00
31096;BME280;17749;51.962;8.560;2023-01-30T16:15:02;100128.78;;;4.49;100.00
31096;BME280;17749;51.962;8.560;2023-01-30T16:18:01;100131.41;;;4.49;100.00
31096;BME280;17749;51.962;8.560;2023-01-30T16:20:48;100141.09;;;4.47;100.00
31096;BME280;17749;51.962;8.560;2023-01-30T16:23:40;100147.25;;;4.47;100.00
31096;BME280;17749;51.962;8.560;2023-01-30T16:26:15;100151.69;;;4.44;100.00
31096;BME280;17749;51.962;8.560;2023-01-30T16:28:44;100152.56;;;4.44;100.00
31096;BME280;17749;51.962;8.560;2023-01-30T16:31:19;100145.50;;;4.46;100.00
31096;BME280;17749;51.962;8.560;2023-01-30T16:33:55;100165.75;;;4.46;100.00
31096;BME280;17749;51.962;8.560;2023-01-30T16:38:52;100171.00;;;4.46;100.00
31096;BME280;17749;51.962;8.560;2023-01-30T16:41:27;100179.75;;;4.48;100.00
31096;BME280;17749;51.962;8.560;2023-01-30T16:49:38;100193.75;;;4.53;100.00
31096;BME280;17749;51.962;8.560;2023-01-30T16:52:16;100195.50;;;4.54;100.00
31096;BME280;17749;51.962;8.560;2023-01-30T16:54:48;100193.75;;;4.54;100.00
31096;BME280;17749;51.962;8.560;2023-01-30T16:57:42;100198.09;;;4.58;100.00
31096;BME280;17749;51.962;8.560;2023-01-30T17:00:18;100203.31;;;4.60;100.00
31096;BME280;17749;51.962;8.560;2023-01-30T17:03:02;100208.56;;;4.63;100.00
31096;BME280;17749;51.962;8.560;2023-01-30T17:05:44;100212.94;;;4.64;100.00
31096;BME280;17749;51.962;8.560;2023-01-30T17:11:31;100225.19;;;4.70;100.00
31096;BME280;17749;51.962;8.560;2023-01-30T17:14:24;100223.47;;;4.67;100.00
31096;BME280;17749;51.962;8.560;2023-01-30T17:17:03;100226.97;;;4.66;100.00
31096;BME280;17749;51.962;8.560;2023-01-30T17:19:36;100232.25;;;4.66;100.00
31096;BME280;17749;51.962;8.560;2023-01-30T17:22:08;100235.75;;;4.68;100.00
31096;BME280;17749;51.962;8.560;2023-01-30T17:24:59;100233.97;;;4.70;100.00
31096;BME280;17749;51.962;8.560;2023-01-30T17:27:33;100237.50;;;4.69;100.00
31096;BME280;17749;51.962;8.560;2023-01-30T17:30:13;100238.38;;;4.68;100.00
31096;BME280;17749;51.962;8.560;2023-01-30T17:32:46;100250.69;;;4.69;100.00
31096;BME280;17749;51.962;8.560;2023-01-30T17:35:17;100259.47;;;4.70;100.00
31096;BME280;17749;51.962;8.560;2023-01-30T17:37:46;100269.97;;;4.73;100.00
31096;BME280;17749;51.962;8.560;2023-01-30T17:40:36;100267.34;;;4.74;100.00
31096;BME280;17749;51.962;8.560;2023-01-30T17:43:04;100263.78;;;4.75;100.00
31096;BME280;17749;51.962;8.560;2023-01-30T17:45:31;100275.22;;;4.76;100.00
31096;BME280;17749;51.962;8.560;2023-01-30T17:47:59;100294.53;;;4.78;100.00
31096;BME280;17749;51.962;8.560;2023-01-30T17:50:26;100295.44;;;4.77;100.00
31096;BME280;17749;51.962;8.560;2023-01-30T17:52:57;100311.28;;;4.75;100.00
31096;BME280;17749;51.962;8.560;2023-01-30T17:55:24;100319.19;;;4.74;100.00
31096;BME280;17749;51.962;8.560;2023-01-30T17:57:53;100315.75;;;4.70;100.00
31096;BME280;17749;51.962;8.560;2023-01-30T18:00:23;100317.56;;;4.64;100.00
31096;BME280;17749;51.962;8.560;2023-01-30T18:02:50;100315.84;;;4.63;100.00
31096;BME280;17749;51.962;8.560;2023-01-30T18:05:21;100321.19;;;4.55;100.00
31096;BME280;17749;51.962;8.560;2023-01-30T18:07:48;100317.69;;;4.53;100.00
31096;BME280;17749;51.962;8.560;2023-01-30T18:10:18;100327.44;;;4.51;100.00
31096;BME280;17749;51.962;8.560;2023-01-30T18:12:46;100336.22;;;4.50;100.00
31096;BME280;17749;51.962;8.560;2023-01-30T18:15:14;100338.88;;;4.47;100.00
31096;BME280;17749;51.962;8.560;2023-01-30T18:17:47;100346.84;;;4.42;100.00
31096;BME280;17749;51.962;8.560;2023-01-30T18:20:18;100351.25;;;4.40;100.00
31096;BME280;17749;51.962;8.560;2023-01-30T18:22:46;100354.78;;;4.37;100.00
31096;BME280;17749;51.962;8.560;2023-01-30T18:25:14;100360.09;;;4.36;100.00
31096;BME280;17749;51.962;8.560;2023-01-30T18:27:45;100359.28;;;4.32;100.00
31096;BME280;17749;51.962;8.560;2023-01-30T18:30:15;100363.66;;;4.32;100.00
31096;BME280;17749;51.962;8.560;2023-01-30T18:32:46;100363.69;;;4.30;100.00
31096;BME280;17749;51.962;8.560;2023-01-30T18:35:21;100367.22;;;4.26;100.00
31096;BME280;17749;51.962;8.560;2023-01-30T18:37:49;100371.63;;;4.24;100.00
31096;BME280;17749;51.962;8.560;2023-01-30T18:40:18;100378.72;;;4.22;100.00
31096;BME280;17749;51.962;8.560;2023-01-30T18:42:46;100373.44;;;4.19;100.00
31096;BME280;17749;51.962;8.560;2023-01-30T18:45:14;100376.97;;;4.20;100.00
31096;BME280;17749;51.962;8.560;2023-01-30T18:47:42;100373.44;;;4.19;100.00
31096;BME280;17749;51.962;8.560;2023-01-30T18:50:10;100378.72;;;4.19;100.00
31096;BME280;17749;51.962;8.560;2023-01-30T18:52:38;100377.88;;;4.17;100.00
31096;BME280;17749;51.962;8.560;2023-01-30T18:55:06;100370.88;;;4.14;100.00
31096;BME280;17749;51.962;8.560;2023-01-30T18:57:34;100380.56;;;4.14;100.00
31096;BME280;17749;51.962;8.560;2023-01-30T19:00:02;100384.00;;;4.17;100.00
31096;BME280;17749;51.962;8.560;2023-01-30T19:02:29;100396.31;;;4.17;100.00
31096;BME280;17749;51.962;8.560;2023-01-30T19:04:56;100404.19;;;4.18;100.00
31096;BME280;17749;51.962;8.560;2023-01-30T19:07:26;100416.47;;;4.21;100.00
31096;BME280;17749;51.962;8.560;2023-01-30T19:09:54;100413.88;;;4.18;100.00
31096;BME280;17749;51.962;8.560;2023-01-30T19:12:22;100422.66;;;4.20;100.00
31096;BME280;17749;51.962;8.560;2023-01-30T19:15:08;100425.28;;;4.20;100.00
31096;BME280;17749;51.962;8.560;2023-01-30T19:17:36;100426.16;;;4.19;100.00
31096;BME280;17749;51.962;8.560;2023-01-30T19:20:06;100429.66;;;4.21;100.00
31096;BME280;17749;51.962;8.560;2023-01-30T19:22:37;100440.22;;;4.21;100.00
31096;BME280;17749;51.962;8.560;2023-01-30T19:25:06;100438.47;;;4.20;100.00
31096;BME280;17749;51.962;8.560;2023-01-30T19:27:35;100444.63;;;4.21;100.00
31096;BME280;17749;51.962;8.560;2023-01-30T19:30:03;100456.03;;;4.21;100.00
31096;BME280;17749;51.962;8.560;2023-01-30T19:32:29;100456.03;;;4.21;100.00
31096;BME280;17749;51.962;8.560;2023-01-30T19:34:56;100451.66;;;4.20;100.00
31096;BME280;17749;51.962;8.560;2023-01-30T19:37:23;100452.50;;;4.24;100.00
31096;BME280;17749;51.962;8.560;2023-01-30T19:39:50;100454.25;;;4.23;100.00
31096;BME280;17749;51.962;8.560;2023-01-30T19:42:18;100459.56;;;4.20;100.00
31096;BME280;17749;51.962;8.560;2023-01-30T19:44:45;100457.78;;;4.19;100.00
31096;BME280;17749;51.962;8.560;2023-01-30T19:47:12;100449.03;;;4.20;100.00
31096;BME280;17749;51.962;8.560;2023-01-30T19:49:39;100461.31;;;4.23;100.00
31096;BME280;17749;51.962;8.560;2023-01-30T19:52:08;100459.50;;;4.26;100.00
31096;BME280;17749;51.962;8.560;2023-01-30T19:54:37;100461.25;;;4.24;100.00
31096;BME280;17749;51.962;8.560;2023-01-30T19:57:08;100470.06;;;4.23;100.00
31096;BME280;17749;51.962;8.560;2023-01-30T19:59:35;100478.84;;;4.25;100.00
31096;BME280;17749;51.962;8.560;2023-01-30T20:02:05;100471.81;;;4.24;100.00
31096;BME280;17749;51.962;8.560;2023-01-30T20:04:33;100478.84;;;4.25;100.00
31096;BME280;17749;51.962;8.560;2023-01-30T20:07:00;100491.13;;;4.28;100.00
31096;BME280;17749;51.962;8.560;2023-01-30T20:09:27;100487.63;;;4.24;100.00
31096;BME280;17749;51.962;8.560;2023-01-30T20:11:53;100492.94;;;4.23;100.00
31096;BME280;17749;51.962;8.560;2023-01-30T20:14:20;100496.47;;;4.20;100.00
31096;BME280;17749;51.962;8.560;2023-01-30T20:16:47;100502.59;;;4.19;100.00
31096;BME280;17749;51.962;8.560;2023-01-30T20:19:15;100506.16;;;4.20;100.00
31096;BME280;17749;51.962;8.560;2023-01-30T20:21:43;100514.00;;;4.24;100.00
31096;BME280;17749;51.962;8.560;2023-01-30T20:24:12;100514.03;;;4.21;100.00
31096;BME280;17749;51.962;8.560;2023-01-30T20:26:40;100524.56;;;4.21;100.00
31096;BME280;17749;51.962;8.560;2023-01-30T20:29:10;100521.97;;;4.20;100.00
31096;BME280;17749;51.962;8.560;2023-01-30T20:31:38;100531.63;;;4.22;100.00
31096;BME280;17749;51.962;8.560;2023-01-30T20:34:09;100535.97;;;4.22;100.00
31096;BME280;17749;51.962;8.560;2023-01-30T20:36:37;100537.75;;;4.23;100.00
31096;BME280;17749;51.962;8.560;2023-01-30T20:39:04;100543.88;;;4.26;100.00
31096;BME280;17749;51.962;8.560;2023-01-30T20:41:33;100540.41;;;4.20;100.00
31096;BME280;17749;51.962;8.560;2023-01-30T20:44:06;100549.16;;;4.23;100.00
31096;BME280;17749;51.962;8.560;2023-01-30T20:46:59;100557.09;;;4.20;100.00
31096;BME280;17749;51.962;8.560;2023-01-30T20:49:46;100540.47;;;4.12;100.00
31096;BME280;17749;51.962;8.560;2023-01-30T20:52:17;100550.94;;;4.16;100.00
31096;BME280;17749;51.962;8.560;2023-01-30T20:54:45;100553.63;;;4.13;100.00
31096;BME280;17749;51.962;8.560;2023-01-30T20:57:12;100555.38;;;4.13;100.00
31096;BME280;17749;51.962;8.560;2023-01-30T20:59:40;100557.16;;;4.11;100.00
31096;BME280;17749;51.962;8.560;2023-01-30T21:02:11;100568.59;;;4.10;100.00
31096;BME280;17749;51.962;8.560;2023-01-30T21:04:47;100565.94;;;4.10;100.00
31096;BME280;17749;51.962;8.560;2023-01-30T21:07:19;100572.09;;;4.12;100.00
31096;BME280;17749;51.962;8.560;2023-01-30T21:09:47;100559.78;;;4.11;100.00
31096;BME280;17749;51.962;8.560;2023-01-30T21:12:14;100568.59;;;4.10;100.00
31096;BME280;17749;51.962;8.560;2023-01-30T21:14:52;100577.41;;;4.03;100.00
31096;BME280;17749;51.962;8.560;2023-01-30T21:22:23;100585.34;;;3.95;100.00
